Weather History for KBIE - March, 2014

Change the Weather History Date:

Saturday, March 8, 2014

  Actual Average Record
Temperature  
Mean Temperature 32 °F -  
Max Temperature 42 °F 48 °F 78 °F (1977)
Min Temperature 21 °F 23 °F 1 °F (1967)
Degree Days  
Heating Degree Days 34    
Moisture  
Dew Point 16 °F    
Average Humidity 57    
Maximum Humidity 80    
Minimum Humidity 28    
Precipitation  
Precipitation 0.00 in - - ()
Sea Level Pressure  
Sea Level Pressure 30.28 in    
Wind  
Wind Speed 12 mph (North)    
Max Wind Speed 21 mph    
Max Gust Speed 26 mph    
Visibility 10 miles    
Events      
Averages and records for this station are not official NWS values.
T = Trace of Precipitation, MM = Missing Value Source: NWS Daily Summary

Daily Weather History Graph

Daily Weather History Graph

Search for Another Location

Airport or City:

Trip Planner

Search our weather history database for the weather conditions in past years. The results will help you decide how hot, cold, wet, or windy it might be!

Date:

Astronomy

Mar. 08, 2014 Rise Set
Actual Time 6:49 AM CST 6:26 PM CST
Civil Twilight 6:22 AM CST 6:53 PM CST
Nautical Twilight 5:51 AM CST 7:25 PM CST
Astronomical Twilight 5:19 AM CST 7:56 PM CST
Moon 11:31 AM CST (3/8) 1:26 AM CST (3/8)
Length of Visible Light 12h 30m
Length of Day
11h 36m
First Quarter, 52% of the Moon is Illuminated
Mar 8
First Quarter
Mar 16
Full
Mar 23
Last Quarter
Mar 30
New
Apr 7
First Quarter

Hourly Weather History & Observations

Time (CST) Temp. Windchill Dew Point Humidity Pressure Visibility Wind Dir Wind Speed Gust Speed Precip Events Conditions
12:15 AM 28.4 °F 17.0 °F 21.2 °F 74% 30.17 in 10.0 mi North 15.0 mph 21.9 mph N/A   Overcast
12:35 AM 28.0 °F 14.6 °F 21.6 °F 77% 30.17 in 10.0 mi North 20.7 mph 25.3 mph N/A   Overcast
12:55 AM 27.9 °F 15.5 °F 21.2 °F 76% 30.18 in 10.0 mi North 17.3 mph 26.5 mph N/A   Overcast
1:15 AM 27.9 °F 15.1 °F 21.2 °F 76% 30.19 in 10.0 mi North 18.4 mph 25.3 mph N/A   Overcast
1:35 AM 27.7 °F 15.2 °F 20.8 °F 75% 30.19 in 10.0 mi North 17.3 mph 24.2 mph N/A   Overcast
1:55 AM 27.5 °F 16.3 °F 20.8 °F 76% 30.19 in 10.0 mi North 13.8 mph - N/A   Overcast
2:15 AM 27.9 °F 15.5 °F 19.6 °F 71% 30.20 in 10.0 mi North 17.3 mph - N/A   Overcast
2:35 AM 27.1 °F 14.5 °F 19.9 °F 74% 30.21 in 10.0 mi North 17.3 mph 25.3 mph N/A   Overcast
2:55 AM 26.4 °F 15.5 °F 21.0 °F 80% 30.20 in 10.0 mi North 12.7 mph - N/A   Overcast
3:15 AM 26.6 °F 13.8 °F 17.6 °F 69% 30.21 in 10.0 mi North 17.3 mph 23.0 mph N/A   Overcast
3:35 AM 26.6 °F 14.7 °F 17.6 °F 69% 30.21 in 10.0 mi North 15.0 mph 21.9 mph N/A   Overcast
3:55 AM 25.9 °F 12.1 °F 17.4 °F 70% 30.22 in 10.0 mi North 19.6 mph - N/A   Overcast
4:15 AM 25.5 °F 12.9 °F 17.1 °F 70% 30.22 in 10.0 mi North 16.1 mph - N/A   Overcast
4:35 AM 24.8 °F 12.9 °F 16.7 °F 71% 30.24 in 10.0 mi North 13.8 mph - N/A   Overcast
4:55 AM 23.9 °F 10.8 °F 16.5 °F 73% 30.24 in 10.0 mi North 16.1 mph - N/A   Overcast
5:15 AM 23.9 °F 11.7 °F 16.7 °F 74% 30.24 in 10.0 mi North 13.8 mph 18.4 mph N/A   Overcast
5:35 AM 23.9 °F 11.2 °F 16.7 °F 74% 30.25 in 10.0 mi North 15.0 mph - N/A   Overcast
5:55 AM 23.4 °F 10.1 °F 16.3 °F 75% 30.27 in 10.0 mi North 16.1 mph - N/A   Overcast
6:15 AM 23.0 °F 11.1 °F 15.8 °F 74% 30.27 in 10.0 mi North 12.7 mph 19.6 mph N/A   Overcast
6:35 AM 22.1 °F 10.0 °F 15.8 °F 77% 30.27 in 10.0 mi North 12.7 mph - N/A   Overcast
6:55 AM 21.9 °F 9.2 °F 15.6 °F 77% 30.28 in 10.0 mi North 13.8 mph - N/A   Mostly Cloudy
7:15 AM 21.7 °F 10.2 °F 15.8 °F 78% 30.29 in 10.0 mi North 11.5 mph - N/A   Scattered Clouds
7:35 AM 21.9 °F 10.4 °F 15.8 °F 77% 30.29 in 10.0 mi North 11.5 mph 17.3 mph N/A   Clear
7:55 AM 22.1 °F 10.0 °F 15.8 °F 77% 30.30 in 10.0 mi North 12.7 mph - N/A   Clear
8:15 AM 22.5 °F 9.9 °F 15.8 °F 76% 30.30 in 10.0 mi North 13.8 mph - N/A   Clear
8:35 AM 23.0 °F 11.7 °F 16.0 °F 74% 30.32 in 10.0 mi North 11.5 mph - N/A   Scattered Clouds
8:55 AM 23.5 °F 11.8 °F 16.0 °F 73% 30.32 in 10.0 mi North 12.7 mph - N/A   Scattered Clouds
9:15 AM 24.4 °F 14.2 °F 16.5 °F 72% 30.33 in 10.0 mi North 10.4 mph - N/A   Clear
9:35 AM 26.1 °F 16.2 °F 16.5 °F 67% 30.33 in 10.0 mi North 10.4 mph - N/A   Clear
9:55 AM 28.0 °F 18.6 °F 17.2 °F 64% 30.33 in 10.0 mi North 10.4 mph - N/A   Clear
10:15 AM 28.4 °F 19.1 °F 17.2 °F 63% 30.33 in 10.0 mi North 10.4 mph - N/A   Clear
10:35 AM 29.8 °F 21.5 °F 16.9 °F 59% 30.33 in 10.0 mi North 9.2 mph - N/A   Clear
10:55 AM 31.1 °F 23.1 °F 16.5 °F 55% 30.34 in 10.0 mi North 9.2 mph - N/A   Clear
11:15 AM 31.6 °F 22.6 °F 16.5 °F 54% 30.34 in 10.0 mi North 11.5 mph - N/A   Clear
11:35 AM 32.0 °F 24.2 °F 16.2 °F 52% 30.34 in 10.0 mi North 9.2 mph - N/A   Clear
11:55 AM 33.3 °F 26.4 °F 16.0 °F 49% 30.33 in 10.0 mi North 8.1 mph - N/A   Clear
12:15 PM 34.2 °F 28.2 °F 16.2 °F 48% 30.33 in 10.0 mi North 6.9 mph - N/A   Clear
12:35 PM 35.4 °F 30.5 °F 16.0 °F 45% 30.33 in 10.0 mi NNE 5.8 mph - N/A   Clear
12:55 PM 36.0 °F 28.5 °F 15.3 °F 43% 30.32 in 10.0 mi North 10.4 mph - N/A   Clear
1:15 PM 37.2 °F 31.2 °F 15.1 °F 40% 30.31 in 10.0 mi North 8.1 mph - N/A   Clear
1:35 PM 39.2 °F 33.0 °F 15.1 °F 37% 30.30 in 10.0 mi NNW 9.2 mph 17.3 mph N/A   Clear
1:55 PM 39.4 °F 33.8 °F 14.5 °F 36% 30.29 in 10.0 mi North 8.1 mph - N/A   Clear
2:15 PM 39.9 °F 34.5 °F 13.3 °F 34% 30.29 in 10.0 mi North 8.1 mph 16.1 mph N/A   Clear
2:35 PM 40.8 °F 36.2 °F 14.2 °F 34% 30.28 in 10.0 mi NNW 6.9 mph - N/A   Clear
2:55 PM 41.4 °F 36.2 °F 13.6 °F 32% 30.28 in 10.0 mi North 8.1 mph - N/A   Clear
3:15 PM 41.7 °F 36.7 °F 13.8 °F 32% 30.28 in 10.0 mi North 8.1 mph - N/A   Clear
3:35 PM 42.3 °F 37.3 °F 13.5 °F 31% 30.27 in 10.0 mi North 8.1 mph - N/A   Clear
3:55 PM 42.6 °F 40.9 °F 12.9 °F 30% 30.27 in 10.0 mi NNW 3.5 mph - N/A   Clear
4:15 PM 42.3 °F 39.4 °F 12.0 °F 29% 30.27 in 10.0 mi North 4.6 mph - N/A   Clear
4:35 PM 42.4 °F 39.6 °F 12.0 °F 29% 30.28 in 10.0 mi NNW 4.6 mph - N/A   Clear
4:55 PM 42.4 °F - 11.3 °F 28% 30.28 in 10.0 mi Calm Calm - N/A   Clear
5:15 PM 42.1 °F 39.2 °F 11.8 °F 29% 30.28 in 10.0 mi North 4.6 mph - N/A   Clear
5:35 PM 41.7 °F 38.8 °F 12.2 °F 30% 30.28 in 10.0 mi North 4.6 mph - N/A   Clear
5:55 PM 40.5 °F 38.4 °F 12.2 °F 32% 30.28 in 10.0 mi NW 3.5 mph - N/A   Clear
6:15 PM 40.1 °F - 11.7 °F 31% 30.28 in 10.0 mi Calm Calm - N/A   Clear
6:35 PM 35.1 °F - 12.2 °F 39% 30.29 in 10.0 mi Calm Calm - N/A   Clear
6:55 PM 37.0 °F - 12.7 °F 37% 30.29 in 10.0 mi Calm Calm - N/A   Clear
7:15 PM 34.5 °F - 12.9 °F 41% 30.29 in 10.0 mi Calm Calm - N/A   Clear
7:30 PM 35.2 °F - 12.9 °F 40% 30.29 in 10.0 mi Calm Calm - N/A   Clear
7:55 PM 31.3 °F - 13.6 °F 48% 30.29 in 10.0 mi Calm Calm - N/A   Clear
8:15 PM 30.7 °F - 13.8 °F 50% 30.29 in 10.0 mi Calm Calm - N/A   Clear
8:35 PM 31.8 °F - 13.8 °F 47% 30.29 in 10.0 mi Calm Calm - N/A   Clear
8:55 PM 31.1 °F - 14.4 °F 50% 30.30 in 10.0 mi Calm Calm - N/A   Clear
9:15 PM 27.3 °F - 14.7 °F 59% 30.30 in 10.0 mi Calm Calm - N/A   Clear
9:35 PM 27.3 °F - 14.4 °F 58% 30.30 in 10.0 mi Calm Calm - N/A   Clear
9:55 PM 26.1 °F - 14.0 °F 60% 30.30 in 10.0 mi Calm Calm - N/A   Clear
10:15 PM 27.0 °F - 14.5 °F 60% 30.30 in 10.0 mi Calm Calm - N/A   Clear
10:35 PM 26.1 °F - 14.7 °F 62% 30.30 in 10.0 mi Calm Calm - N/A   Clear
10:55 PM 24.8 °F - 14.7 °F 66% 30.29 in 10.0 mi Calm Calm - N/A   Clear
11:15 PM 26.1 °F 21.9 °F 14.9 °F 63% 30.29 in 10.0 mi South 3.5 mph - N/A   Clear
11:35 PM 27.1 °F 20.7 °F 15.1 °F 60% 30.29 in 10.0 mi South 5.8 mph - N/A   Clear
11:55 PM 26.8 °F 20.2 °F 15.8 °F 63% 30.29 in 10.0 mi South 5.8 mph - N/A   Clear